Time;durP1;ratioP1;P1;durP2;ratioP2;P2;SDS_P1;SDS_P2;PMS_P1;PMS_P2;Temp;Humidity;BMP_temperature;BMP_pressure;BME280_temperature;BME280_humidity;BME280_pressure;Samples;Min_cycle;Max_cycle;Signal;HPM_P1;HPM_P2
2023/05/12 00:02:09;;;;;;;8.80;5.40;;;12.60;99.90;;;;;;4976004;28;20046;-71
2023/05/12 00:04:35;;;;;;;9.80;5.82;;;;;;;;;;4992370;28;20034;-71
2023/05/12 00:07:04;;;;;;;8.52;5.63;;;;;;;;;;4991692;28;20385;-71
2023/05/12 00:09:30;;;;;;;8.80;5.60;;;;;;;;;;4976557;28;20065;-71
2023/05/12 00:11:56;;;;;;;9.63;5.63;;;;;;;;;;4992212;28;20039;-72
2023/05/12 00:14:22;;;;;;;10.40;5.55;;;12.50;99.90;;;;;;4992389;28;20042;-72
2023/05/12 00:16:50;;;;;;;9.05;5.57;;;12.20;99.90;;;;;;4992652;28;20074;-71
2023/05/12 00:19:17;;;;;;;10.77;6.47;;;12.50;99.90;;;;;;4992118;28;20046;-72
2023/05/12 00:21:43;;;;;;;12.50;7.30;;;12.50;99.90;;;;;;4991781;28;20041;-72
2023/05/12 00:24:08;;;;;;;11.10;6.32;;;12.60;99.90;;;;;;4993815;28;20113;-72
2023/05/12 00:26:34;;;;;;;9.73;6.78;;;12.60;99.90;;;;;;4991997;28;20034;-71
2023/05/12 00:29:00;;;;;;;11.70;7.18;;;;;;;;;;4992030;28;20034;-72
2023/05/12 00:31:26;;;;;;;14.85;7.90;;;;;;;;;;5008017;28;20046;-72
2023/05/12 00:33:51;;;;;;;11.23;7.35;;;12.50;99.90;;;;;;5008602;28;20548;-71
2023/05/12 00:36:17;;;;;;;15.75;7.50;;;;;;;;;;4975622;28;20050;-71
2023/05/12 00:38:43;;;;;;;13.43;7.43;;;;;;;;;;5008433;28;20045;-71
2023/05/12 00:41:09;;;;;;;14.88;8.10;;;;;;;;;;5008010;28;20042;-71
2023/05/12 00:43:35;;;;;;;12.60;7.40;;;;;;;;;;4975628;28;20129;-71
2023/05/12 00:46:04;;;;;;;15.65;8.93;;;12.50;99.90;;;;;;5008293;28;20093;-71
2023/05/12 00:48:31;;;;;;;16.65;8.98;;;12.70;99.90;;;;;;4991711;28;20042;-71
2023/05/12 00:50:57;;;;;;;13.98;7.93;;;;;;;;;;4991605;28;20046;-71
2023/05/12 00:53:23;;;;;;;13.90;8.65;;;;;;;;;;5007249;28;20049;-71
2023/05/12 00:55:49;;;;;;;18.85;10.10;;;;;;;;;;5007655;28;20070;-70
2023/05/12 00:58:15;;;;;;;21.95;10.30;;;;;;;;;;4975258;28;20098;-71
2023/05/12 01:00:41;;;;;;;24.00;10.52;;;;;;;;;;4975034;28;20038;-71
2023/05/12 01:03:07;;;;;;;23.48;12.27;;;;;;;;;;4975196;28;20045;-71
2023/05/12 01:05:49;;;;;;;25.83;13.05;;;12.40;99.90;;;;;;4975801;28;20048;-71
2023/05/12 01:08:16;;;;;;;28.83;14.70;;;12.70;99.90;;;;;;4991445;28;20042;-71
2023/05/12 01:10:45;;;;;;;28.67;16.55;;;12.70;99.90;;;;;;4974933;28;20493;-71
2023/05/12 01:13:11;;;;;;;30.50;14.35;;;12.30;99.90;;;;;;4991369;28;20042;-71
2023/05/12 01:15:41;;;;;;;32.70;16.00;;;12.80;99.90;;;;;;4991262;28;20149;-71
2023/05/12 01:18:10;;;;;;;33.97;17.48;;;12.80;99.90;;;;;;4991103;28;20050;-70
2023/05/12 01:20:36;;;;;;;32.38;16.58;;;12.30;99.90;;;;;;5007628;28;20153;-71
2023/05/12 01:23:04;;;;;;;33.58;17.83;;;12.90;99.90;;;;;;4974935;28;20039;-70
2023/05/12 01:25:31;;;;;;;30.08;15.70;;;12.50;99.90;;;;;;4991128;28;20034;-71
2023/05/12 01:27:58;;;;;;;35.38;17.10;;;12.70;99.90;;;;;;4991396;28;20396;-71
2023/05/12 01:30:24;;;;;;;28.80;15.38;;;;;;;;;;4990644;28;20034;-71
2023/05/12 01:32:50;;;;;;;32.97;16.65;;;12.40;99.90;;;;;;4991273;28;20089;-71
2023/05/12 01:35:16;;;;;;;33.17;15.88;;;;;;;;;;4991039;28;20145;-71
2023/05/12 01:37:42;;;;;;;34.92;15.55;;;12.50;99.90;;;;;;4991253;28;20133;-70
2023/05/12 01:40:08;;;;;;;31.23;16.77;;;;;;;;;;4974759;28;20068;-70
2023/05/12 01:42:34;;;;;;;35.92;17.45;;;13.10;99.90;;;;;;4991155;28;20543;-71
2023/05/12 01:44:59;;;;;;;35.67;16.63;;;;;;;;;;4990996;28;20038;-72
2023/05/12 01:47:25;;;;;;;33.30;18.45;;;12.50;99.90;;;;;;4990773;28;20042;-70
2023/05/12 01:49:53;;;;;;;36.10;18.00;;;12.70;99.90;;;;;;4974715;28;20039;-72
2023/05/12 01:52:19;;;;;;;33.25;18.33;;;13.10;99.90;;;;;;4974716;28;20400;-71
2023/05/12 01:54:45;;;;;;;40.28;19.52;;;13.00;99.90;;;;;;4991244;28;20042;-71
2023/05/12 01:57:10;;;;;;;36.83;19.15;;;13.10;99.90;;;;;;4974702;28;20526;-70
2023/05/12 01:59:36;;;;;;;39.05;19.15;;;;;;;;;;4991175;28;20400;-71
2023/05/12 02:02:02;;;;;;;35.15;19.58;;;;;;;;;;4991861;28;20507;-70
2023/05/12 02:04:28;;;;;;;34.80;17.88;;;;;;;;;;4991013;28;20141;-70
2023/05/12 02:06:54;;;;;;;42.40;20.40;;;;;;;;;;4990762;28;20100;-71
2023/05/12 02:09:21;;;;;;;43.00;20.52;;;13.10;99.90;;;;;;4990895;28;20038;-71
2023/05/12 02:11:47;;;;;;;40.63;20.27;;;12.50;99.90;;;;;;4990399;28;20488;-71
2023/05/12 02:14:13;;;;;;;45.25;21.00;;;12.90;99.90;;;;;;4974400;28;20125;-71
2023/05/12 02:16:39;;;;;;;44.05;21.90;;;;;;;;;;4974370;28;20187;-71
2023/05/12 02:19:05;;;;;;;42.15;20.38;;;;;;;;;;4990614;28;20043;-70
2023/05/12 02:21:31;;;;;;;38.30;21.00;;;13.00;99.90;;;;;;4974178;28;20488;-71
2023/05/12 02:23:57;;;;;;;41.97;20.83;;;;;;;;;;4974393;28;20047;-71
2023/05/12 02:26:23;;;;;;;48.65;23.15;;;12.80;99.90;;;;;;4974576;28;20081;-70
2023/05/12 02:28:48;;;;;;;45.47;23.63;;;13.00;99.90;;;;;;4974283;28;20496;-72
2023/05/12 02:31:14;;;;;;;42.75;22.13;;;12.90;99.90;;;;;;4992611;28;20042;-71
2023/05/12 02:33:40;;;;;;;48.95;23.63;;;;;;;;;;4994290;28;20084;-71
2023/05/12 02:36:06;;;;;;;49.97;24.25;;;12.70;99.90;;;;;;4978010;28;20046;-71
2023/05/12 02:38:31;;;;;;;46.00;24.10;;;12.70;99.90;;;;;;4978135;28;20049;-71
2023/05/12 02:40:57;;;;;;;52.28;25.65;;;12.50;99.90;;;;;;4993869;28;20045;-71
2023/05/12 02:43:23;;;;;;;58.05;25.75;;;;;;;;;;4993875;28;20121;-71
2023/05/12 02:45:50;;;;;;;51.70;24.67;;;;;;;;;;4994161;28;20193;-71
2023/05/12 02:48:16;;;;;;;50.70;26.10;;;13.10;99.90;;;;;;5010224;28;20054;-71
2023/05/12 02:50:42;;;;;;;51.72;25.10;;;13.00;99.90;;;;;;4993761;28;20412;-70
2023/05/12 02:53:08;;;;;;;53.65;25.42;;;;;;;;;;4977694;28;20050;-71
2023/05/12 02:55:33;;;;;;;59.58;25.05;;;12.80;99.90;;;;;;4977599;28;20142;-71
2023/05/12 02:57:59;;;;;;;54.50;26.08;;;12.90;99.90;;;;;;4977530;28;20193;-71
2023/05/12 03:00:25;;;;;;;65.03;29.38;;;13.20;99.90;;;;;;4993460;28;20122;-71
2023/05/12 03:02:51;;;;;;;62.53;27.00;;;;;;;;;;4977496;28;20101;-70
2023/05/12 03:05:16;;;;;;;67.60;29.27;;;12.80;99.90;;;;;;4993620;28;20038;-71
2023/05/12 03:07:42;;;;;;;64.10;27.30;;;13.00;99.90;;;;;;4993633;28;20037;-70
2023/05/12 03:10:11;;;;;;;58.22;27.35;;;12.60;99.90;;;;;;4993366;28;20038;-69
2023/05/12 03:12:36;;;;;;;59.53;27.65;;;13.00;99.90;;;;;;4977434;28;20086;-71
2023/05/12 03:15:03;;;;;;;65.72;28.73;;;12.80;99.90;;;;;;4993931;28;20074;-70
2023/05/12 03:17:29;;;;;;;64.68;27.75;;;12.90;99.90;;;;;;4993728;28;20042;-71
2023/05/12 03:19:54;;;;;;;63.15;28.08;;;13.00;99.90;;;;;;4993629;28;20048;-71
2023/05/12 03:22:20;;;;;;;67.38;28.83;;;;;;;;;;4976801;28;20082;-71
2023/05/12 03:24:46;;;;;;;65.22;28.42;;;;;;;;;;4993256;28;20050;-70
2023/05/12 03:27:12;;;;;;;65.95;29.00;;;13.40;99.90;;;;;;4993440;28;20046;-71
2023/05/12 03:29:37;;;;;;;69.47;28.80;;;12.80;99.90;;;;;;4977011;28;20117;-71
2023/05/12 03:32:03;;;;;;;64.20;29.20;;;13.40;99.90;;;;;;4993075;28;20042;-70
2023/05/12 03:34:30;;;;;;;66.30;28.55;;;12.80;99.90;;;;;;4993185;28;20491;-71
2023/05/12 03:36:57;;;;;;;63.28;28.80;;;;;;;;;;4993015;28;20050;-71
2023/05/12 03:39:23;;;;;;;65.50;28.58;;;13.00;99.90;;;;;;5009424;28;20042;-71
2023/05/12 03:41:49;;;;;;;63.40;27.38;;;;;;;;;;4992534;28;20046;-70
2023/05/12 03:44:15;;;;;;;66.25;29.85;;;;;;;;;;4976746;28;20523;-72
2023/05/12 03:46:41;;;;;;;62.05;26.48;;;;;;;;;;4976822;28;20081;-71
2023/05/12 03:49:07;;;;;;;66.32;28.65;;;13.50;99.90;;;;;;4993157;28;20231;-70
2023/05/12 03:51:33;;;;;;;53.30;26.00;;;13.30;99.90;;;;;;4976434;28;20031;-71
2023/05/12 03:53:58;;;;;;;66.63;27.95;;;;;;;;;;4992811;28;20042;-71
2023/05/12 03:56:24;;;;;;;63.65;28.00;;;13.00;99.90;;;;;;4992558;28;20424;-71
2023/05/12 03:58:50;;;;;;;60.78;27.30;;;;;;;;;;4976654;28;20135;-71
2023/05/12 04:01:16;;;;;;;72.47;26.27;;;;;;;;;;4976264;28;20046;-71
2023/05/12 04:03:42;;;;;;;63.85;30.02;;;12.90;99.90;;;;;;4976332;28;20046;-71
2023/05/12 04:06:07;;;;;;;61.22;28.05;;;13.70;99.90;;;;;;4992530;28;20137;-71
2023/05/12 04:08:33;;;;;;;66.10;28.30;;;;;;;;;;4992479;28;20133;-71
2023/05/12 04:11:00;;;;;;;71.97;29.85;;;13.50;99.90;;;;;;4992115;28;20487;-71
2023/05/12 04:13:27;;;;;;;70.93;32.20;;;13.10;99.90;;;;;;4992353;28;20049;-70
2023/05/12 04:15:59;;;;;;;63.30;29.90;;;13.40;99.90;;;;;;4992373;28;20133;-71
2023/05/12 04:18:26;;;;;;;73.22;30.45;;;13.10;99.90;;;;;;4992273;28;20049;-71
2023/05/12 04:20:53;;;;;;;61.03;29.13;;;;;;;;;;4976156;28;20073;-71
2023/05/12 04:23:18;;;;;;;59.88;25.73;;;13.10;99.90;;;;;;4992097;28;20049;-70
2023/05/12 04:25:44;;;;;;;64.30;28.38;;;;;;;;;;4992391;28;20042;-70
2023/05/12 04:28:10;;;;;;;55.92;27.00;;;;;;;;;;4975868;28;20089;-71
2023/05/12 04:30:39;;;;;;;61.92;27.75;;;13.20;99.90;;;;;;4991930;28;20496;-70
2023/05/12 04:33:04;;;;;;;54.55;26.85;;;13.10;99.90;;;;;;4991897;28;20084;-71
2023/05/12 04:35:30;;;;;;;68.57;29.80;;;13.10;99.90;;;;;;4991976;28;20046;-71
2023/05/12 04:37:56;;;;;;;64.13;29.38;;;;;;;;;;4975645;28;20038;-71
2023/05/12 04:40:22;;;;;;;52.25;27.25;;;;;;;;;;4991641;28;20082;-70
2023/05/12 04:42:47;;;;;;;53.63;26.45;;;13.40;99.90;;;;;;4991737;28;20652;-71
2023/05/12 04:45:13;;;;;;;56.75;27.77;;;;;;;;;;4975783;28;20038;-71
2023/05/12 04:47:39;;;;;;;68.28;27.75;;;;;;;;;;4975563;28;20043;-71
2023/05/12 04:50:06;;;;;;;57.47;26.83;;;14.10;99.90;;;;;;4967334;28;20393;-71
2023/05/12 04:52:31;;;;;;;58.70;27.98;;;13.80;99.90;;;;;;4971274;28;20045;-71
2023/05/12 04:54:57;;;;;;;59.35;28.77;;;13.80;99.90;;;;;;4955708;28;20504;-70
2023/05/12 04:57:23;;;;;;;61.70;27.30;;;;;;;;;;4972073;28;20408;-72
2023/05/12 04:59:49;;;;;;;56.15;27.65;;;;;;;;;;4956021;28;20075;-71
2023/05/12 05:02:15;;;;;;;63.28;27.55;;;;;;;;;;4955562;28;20046;-70
2023/05/12 05:04:41;;;;;;;58.60;26.33;;;;;;;;;;4972250;28;20525;-70
2023/05/12 05:07:07;;;;;;;61.72;27.50;;;;;;;;;;4972329;28;20101;-70
2023/05/12 05:09:33;;;;;;;60.08;29.40;;;;;;;;;;4972367;28;20045;-71
2023/05/12 05:11:59;;;;;;;55.45;28.63;;;13.50;99.90;;;;;;4971640;28;20077;-71
2023/05/12 05:14:25;;;;;;;66.47;28.58;;;13.90;99.90;;;;;;4972203;28;20066;-71
2023/05/12 05:16:50;;;;;;;63.97;28.08;;;13.50;99.90;;;;;;4971823;28;20039;-71
2023/05/12 05:19:16;;;;;;;60.08;27.55;;;13.70;99.90;;;;;;4955763;28;20042;-71
2023/05/12 05:21:41;;;;;;;63.58;29.63;;;14.00;99.90;;;;;;4971712;28;20081;-71
2023/05/12 05:24:07;;;;;;;61.63;28.10;;;13.60;99.90;;;;;;4971594;28;20073;-71
2023/05/12 05:26:33;;;;;;;59.28;27.42;;;13.60;99.90;;;;;;4971466;28;20121;-71
2023/05/12 05:28:59;;;;;;;65.38;28.25;;;14.00;99.90;;;;;;4971951;28;20408;-71
2023/05/12 05:31:27;;;;;;;67.15;28.73;;;13.90;99.90;;;;;;4975807;28;20113;-71
2023/05/12 05:33:53;;;;;;;68.03;30.10;;;;;;;;;;4974493;28;20089;-71
2023/05/12 05:36:19;;;;;;;60.97;29.90;;;;;;;;;;4990331;28;20042;-71
2023/05/12 05:38:45;;;;;;;67.20;30.02;;;14.20;99.90;;;;;;4990531;28;20038;-70
2023/05/12 05:41:11;;;;;;;57.25;27.65;;;;;;;;;;4990197;28;20054;-71
2023/05/12 05:43:37;;;;;;;68.13;31.92;;;;;;;;;;4974473;28;20046;-71
2023/05/12 05:46:03;;;;;;;57.85;25.85;;;;;;;;;;4990648;28;20034;-70
2023/05/12 05:48:29;;;;;;;56.33;27.38;;;13.90;99.90;;;;;;4990569;28;20046;-71
2023/05/12 05:50:55;;;;;;;59.80;27.05;;;;;;;;;;4990969;28;20045;-71
2023/05/12 05:53:21;;;;;;;61.65;27.33;;;;;;;;;;4974695;28;20038;-70
2023/05/12 05:55:47;;;;;;;56.83;27.15;;;;;;;;;;4988276;28;20124;-67
2023/05/12 05:58:14;;;;;;;59.83;28.15;;;;;;;;;;4967608;28;20047;-71
2023/05/12 06:00:40;;;;;;;50.17;26.65;;;;;;;;;;4964985;28;20050;-70
2023/05/12 06:03:05;;;;;;;57.05;27.75;;;14.40;99.90;;;;;;4954988;28;20066;-70
2023/05/12 06:05:31;;;;;;;52.90;28.38;;;;;;;;;;4980618;28;20500;-70
2023/05/12 06:07:57;;;;;;;62.00;31.38;;;;;;;;;;4958791;28;20071;-70
2023/05/12 06:10:23;;;;;;;51.97;27.63;;;14.30;99.90;;;;;;4977306;28;20531;-70
2023/05/12 06:12:49;;;;;;;51.05;25.65;;;14.00;99.90;;;;;;4989763;28;20045;-70
2023/05/12 06:15:15;;;;;;;51.45;26.52;;;14.10;99.90;;;;;;4976720;28;20125;-71
2023/05/12 06:17:41;;;;;;;55.03;27.88;;;;;;;;;;4978458;28;20397;-70
2023/05/12 06:20:07;;;;;;;50.42;27.55;;;;;;;;;;4974701;28;20050;-71
2023/05/12 06:22:33;;;;;;;48.10;26.50;;;;;;;;;;4960933;28;20046;-70
2023/05/12 06:25:00;;;;;;;47.75;26.67;;;14.50;99.90;;;;;;4979671;28;20030;-71
2023/05/12 06:27:26;;;;;;;50.97;28.10;;;;;;;;;;4975803;28;20042;-70
2023/05/12 06:29:52;;;;;;;51.92;26.75;;;;;;;;;;4979572;28;20521;-70
2023/05/12 06:32:18;;;;;;;55.05;28.73;;;;;;;;;;4979719;28;20046;-70
2023/05/12 06:34:44;;;;;;;50.97;27.90;;;;;;;;;;4984043;28;20097;-71
2023/05/12 06:37:10;;;;;;;56.08;29.60;;;;;;;;;;4980553;28;20061;-68
2023/05/12 06:39:36;;;;;;;52.70;27.67;;;;;;;;;;4982661;28;20047;-69
2023/05/12 06:42:02;;;;;;;48.55;26.45;;;;;;;;;;4980303;28;20460;-69
2023/05/12 06:44:29;;;;;;;53.05;28.67;;;;;;;;;;4981575;28;20088;-69
2023/05/12 06:46:56;;;;;;;58.13;27.67;;;;;;;;;;4967755;28;20085;-68
2023/05/12 06:49:22;;;;;;;47.55;27.95;;;;;;;;;;4974695;28;20078;-69
2023/05/12 06:51:48;;;;;;;54.17;28.73;;;;;;;;;;4980365;28;20046;-69
2023/05/12 06:54:14;;;;;;;47.13;26.70;;;;;;;;;;4975288;28;20074;-67
2023/05/12 06:56:39;;;;;;;44.92;27.13;;;15.20;99.90;;;;;;4979557;28;20069;-68
2023/05/12 06:59:06;;;;;;;49.65;28.42;;;15.20;99.90;;;;;;4967343;28;20478;-69
2023/05/12 07:01:31;;;;;;;54.72;28.17;;;14.60;99.90;;;;;;4960722;28;20073;-69
2023/05/12 07:03:58;;;;;;;49.97;27.40;;;15.30;99.90;;;;;;4974294;28;20060;-70
2023/05/12 07:06:26;;;;;;;44.78;25.70;;;15.40;99.90;;;;;;4977701;28;20542;-69
2023/05/12 07:08:52;;;;;;;47.72;25.13;;;;;;;;;;4982638;28;20046;-68
2023/05/12 07:11:21;;;;;;;48.40;26.67;;;;;;;;;;4979200;28;20050;-69
2023/05/12 07:13:47;;;;;;;53.08;27.50;;;15.10;99.90;;;;;;4976216;28;20042;-69
2023/05/12 07:16:14;;;;;;;41.33;25.73;;;15.00;99.90;;;;;;4977334;28;20048;-68
2023/05/12 07:18:40;;;;;;;51.63;29.25;;;15.40;99.90;;;;;;4974148;28;20287;-69
2023/05/12 07:21:06;;;;;;;47.85;25.75;;;15.10;99.90;;;;;;4959860;28;20045;-69
2023/05/12 07:23:33;;;;;;;51.10;28.00;;;15.50;99.90;;;;;;4974085;28;20051;-69
2023/05/12 07:26:03;;;;;;;48.85;28.90;;;15.30;99.90;;;;;;4975494;28;20038;-69
2023/05/12 07:28:31;;;;;;;50.28;28.80;;;;;;;;;;4983528;28;20505;-69
2023/05/12 07:30:58;;;;;;;51.55;28.98;;;;;;;;;;4964938;28;20094;-69
2023/05/12 07:33:24;;;;;;;50.22;28.52;;;15.70;99.90;;;;;;4977562;28;20038;-69
2023/05/12 07:35:50;;;;;;;42.58;24.90;;;15.20;99.90;;;;;;4957501;28;20039;-68
2023/05/12 07:38:16;;;;;;;51.50;26.90;;;15.70;99.90;;;;;;4975730;28;20338;-68
2023/05/12 07:40:43;;;;;;;47.22;25.88;;;;;;;;;;4973711;28;20035;-69
2023/05/12 07:43:09;;;;;;;44.30;27.95;;;;;;;;;;4959718;28;20500;-69
2023/05/12 07:45:35;;;;;;;47.08;27.83;;;15.60;99.90;;;;;;4977958;28;20339;-69
2023/05/12 07:48:01;;;;;;;42.60;25.60;;;15.30;99.90;;;;;;4982117;28;20583;-68
2023/05/12 07:50:27;;;;;;;52.42;26.00;;;;;;;;;;4977187;28;20045;-69
2023/05/12 07:52:53;;;;;;;40.63;25.17;;;15.50;99.90;;;;;;4973118;28;20137;-69
2023/05/12 07:55:21;;;;;;;42.97;25.60;;;15.30;99.90;;;;;;4977298;28;20118;-68
2023/05/12 07:57:47;;;;;;;41.17;24.80;;;;;;;;;;4974227;28;20053;-68
2023/05/12 08:00:13;;;;;;;40.10;26.38;;;15.50;99.90;;;;;;4977676;28;20105;-69
2023/05/12 08:02:40;;;;;;;49.83;29.00;;;15.30;99.90;;;;;;4973948;28;20050;-69
2023/05/12 08:05:08;;;;;;;42.58;25.67;;;15.40;99.90;;;;;;4976484;28;20039;-69
2023/05/12 08:07:34;;;;;;;48.70;29.65;;;;;;;;;;4974183;28;20097;-69
2023/05/12 08:10:01;;;;;;;47.42;28.23;;;;;;;;;;4979719;28;20040;-69
2023/05/12 08:12:27;;;;;;;46.50;26.73;;;15.70;99.90;;;;;;4979210;28;20097;-69
2023/05/12 08:14:52;;;;;;;45.58;26.23;;;16.20;99.90;;;;;;4977642;28;20770;-66
2023/05/12 08:17:18;;;;;;;43.50;27.35;;;;;;;;;;4985783;28;20038;-69
2023/05/12 08:19:44;;;;;;;43.97;25.85;;;16.20;99.90;;;;;;4968235;28;20045;-69
2023/05/12 08:22:09;;;;;;;44.55;25.98;;;16.30;99.90;;;;;;4958763;28;20050;-69
2023/05/12 08:24:35;;;;;;;46.17;26.08;;;16.30;99.90;;;;;;4980616;28;20074;-68
2023/05/12 08:27:00;;;;;;;39.55;25.40;;;16.20;99.90;;;;;;4979921;28;20038;-69
2023/05/12 08:29:26;;;;;;;43.78;25.60;;;16.80;99.90;;;;;;4980117;28;20046;-70
2023/05/12 08:31:52;;;;;;;41.38;26.70;;;16.50;99.90;;;;;;4980065;28;20068;-70
2023/05/12 08:34:17;;;;;;;41.80;26.00;;;17.00;99.90;;;;;;4975589;28;20043;-69
2023/05/12 08:36:43;;;;;;;44.22;25.80;;;16.70;99.90;;;;;;4983652;28;20524;-69
2023/05/12 08:39:09;;;;;;;43.30;25.73;;;;;;;;;;4974980;28;20034;-69
2023/05/12 08:41:43;;;;;;;42.78;26.30;;;17.40;99.90;;;;;;4979838;28;20070;-68
2023/05/12 08:44:10;;;;;;;35.72;22.38;;;;;;;;;;4987840;28;20061;-69
2023/05/12 08:46:36;;;;;;;40.58;26.13;;;;;;;;;;4977458;28;20042;-69
2023/05/12 08:49:06;;;;;;;34.05;23.42;;;;;;;;;;4976690;28;20114;-65
2023/05/12 08:51:33;;;;;;;39.25;23.90;;;;;;;;;;4978902;28;20137;-68
2023/05/12 08:54:00;;;;;;;33.25;23.42;;;;;;;;;;4974376;28;20041;-68
2023/05/12 08:56:28;;;;;;;38.22;24.38;;;;;;;;;;4977970;28;20069;-69
2023/05/12 08:58:55;;;;;;;38.70;24.80;;;18.10;99.90;;;;;;4958173;28;20046;-69
2023/05/12 09:01:21;;;;;;;37.80;25.20;;;18.20;99.90;;;;;;4983805;28;20038;-69
2023/05/12 09:03:47;;;;;;;34.42;24.40;;;19.40;99.90;;;;;;4977532;28;20046;-69
2023/05/12 09:06:13;;;;;;;35.15;23.58;;;18.40;99.90;;;;;;4971895;28;20463;-69
2023/05/12 09:08:39;;;;;;;34.58;25.27;;;18.90;99.90;;;;;;4973649;28;20039;-69
2023/05/12 09:11:09;;;;;;;36.80;24.20;;;18.50;99.90;;;;;;4983788;28;20419;-69
2023/05/12 09:13:59;;;;;;;31.88;22.83;;;19.40;99.90;;;;;;4972922;28;20043;-70
2023/05/12 09:16:28;;;;;;;36.40;25.33;;;18.40;99.90;;;;;;4979627;28;20117;-68
2023/05/12 09:18:58;;;;;;;38.20;25.92;;;18.70;99.90;;;;;;4987394;28;20053;-69
2023/05/12 09:21:25;;;;;;;32.30;23.00;;;18.90;99.90;;;;;;4973838;28;20154;-70
2023/05/12 09:23:54;;;;;;;31.77;24.70;;;18.90;99.90;;;;;;4970774;28;20379;-69
2023/05/12 09:26:21;;;;;;;33.90;24.33;;;18.80;99.90;;;;;;4975502;28;20097;-69
2023/05/12 09:28:47;;;;;;;31.02;22.05;;;19.20;99.90;;;;;;4974593;28;20363;-68
2023/05/12 09:31:23;;;;;;;31.35;23.83;;;19.80;99.90;;;;;;4972675;28;20038;-68
2023/05/12 09:33:50;;;;;;;29.67;23.33;;;20.00;99.90;;;;;;4973545;28;20034;-68
2023/05/12 09:36:25;;;;;;;27.65;22.05;;;19.60;99.90;;;;;;4971915;28;20420;-70
2023/05/12 09:39:03;;;;;;;28.67;21.17;;;19.80;99.90;;;;;;4979419;28;20034;-69
2023/05/12 09:41:39;;;;;;;30.25;22.33;;;;;;;;;;4987219;28;20516;-69
2023/05/12 09:44:07;;;;;;;28.17;22.50;;;;;;;;;;4977261;28;20038;-69
2023/05/12 09:46:33;;;;;;;30.77;22.27;;;;;;;;;;4970347;28;20035;-69
2023/05/12 09:48:59;;;;;;;27.10;21.77;;;;;;;;;;4961550;28;20440;-68
2023/05/12 09:51:26;;;;;;;34.17;24.88;;;;;;;;;;4968465;28;20043;-68
2023/05/12 09:53:52;;;;;;;30.63;22.00;;;;;;;;;;4976557;28;20046;-69
2023/05/12 09:56:18;;;;;;;26.65;20.15;;;;;;;;;;4976425;28;20038;-69
2023/05/12 09:58:46;;;;;;;29.33;22.35;;;;;;;;;;4980751;28;20050;-70
2023/05/12 10:01:24;;;;;;;23.85;20.15;;;;;;;;;;4989770;28;20136;-69
2023/05/12 10:03:56;;;;;;;26.83;21.00;;;;;;;;;;4989609;28;20054;-69
2023/05/12 10:06:27;;;;;;;26.90;20.95;;;;;;;;;;4989944;28;20632;-70
2023/05/12 10:09:13;;;;;;;23.25;19.40;;;;;;;;;;4990693;28;20050;-70
2023/05/12 10:11:40;;;;;;;22.98;17.75;;;;;;;;;;4988158;28;20076;-70
2023/05/12 10:14:08;;;;;;;25.73;19.50;;;;;;;;;;5006402;28;20097;-70
2023/05/12 10:16:35;;;;;;;25.02;19.45;;;;;;;;;;5006633;28;20074;-69
2023/05/12 10:19:01;;;;;;;20.98;17.50;;;;;;;;;;4974407;28;20046;-70
2023/05/12 10:21:27;;;;;;;24.85;19.13;;;;;;;;;;4988333;28;20096;-70
2023/05/12 10:23:54;;;;;;;22.65;18.55;;;;;;;;;;4974216;28;20169;-70
2023/05/12 10:26:20;;;;;;;23.25;19.10;;;;;;;;;;4990502;28;20092;-70
2023/05/12 10:28:46;;;;;;;21.80;17.90;;;;;;;;;;4990795;28;20069;-70
2023/05/12 10:31:12;;;;;;;22.25;16.55;;;;;;;;;;4973930;28;20503;-70
2023/05/12 10:33:38;;;;;;;19.60;16.23;;;;;;;;;;4990740;28;20042;-71
2023/05/12 10:36:15;;;;;;;19.58;17.00;;;21.60;99.90;;;;;;4989427;28;20130;-71
2023/05/12 10:38:40;;;;;;;21.33;17.70;;;21.70;99.90;;;;;;4990399;28;20050;-70
2023/05/12 10:41:06;;;;;;;18.95;16.38;;;21.80;99.90;;;;;;4973483;28;20132;-70
2023/05/12 10:43:44;;;;;;;19.40;14.68;;;21.80;99.90;;;;;;4989592;28;20042;-70
2023/05/12 10:46:18;;;;;;;18.85;15.75;;;22.00;99.90;;;;;;5006784;28;20518;-69
2023/05/12 10:48:50;;;;;;;20.77;14.77;;;21.90;99.90;;;;;;4988696;28;20062;-70
2023/05/12 10:51:22;;;;;;;22.40;16.05;;;21.90;99.90;;;;;;4971859;28;20045;-70
2023/05/12 10:53:52;;;;;;;17.98;14.80;;;21.90;99.90;;;;;;4997219;28;20038;-69
2023/05/12 10:56:29;;;;;;;19.52;16.17;;;22.20;99.90;;;;;;4973748;28;20058;-70
2023/05/12 10:59:07;;;;;;;19.48;15.65;;;21.90;99.90;;;;;;4971772;28;20187;-69
2023/05/12 11:01:33;;;;;;;19.08;16.00;;;22.00;99.90;;;;;;4973577;28;20043;-68
2023/05/12 11:04:09;;;;;;;23.17;17.00;;;22.00;99.90;;;;;;4978058;28;20046;-69
2023/05/12 11:06:36;;;;;;;18.15;15.13;;;22.80;99.90;;;;;;4980882;28;20120;-70
2023/05/12 11:09:03;;;;;;;16.55;14.70;;;22.80;99.90;;;;;;4990575;28;20526;-70
2023/05/12 11:11:29;;;;;;;20.58;16.13;;;22.30;99.90;;;;;;4976790;28;20093;-70
2023/05/12 11:13:55;;;;;;;20.75;16.58;;;22.40;99.90;;;;;;4994628;28;20050;-70
2023/05/12 11:16:20;;;;;;;18.25;15.85;;;22.30;99.90;;;;;;4993646;28;20516;-70
2023/05/12 11:18:47;;;;;;;19.23;15.07;;;22.70;99.90;;;;;;4993452;28;20038;-70
2023/05/12 11:21:13;;;;;;;15.25;13.02;;;22.50;99.90;;;;;;4993169;28;20038;-71
2023/05/12 11:23:39;;;;;;;14.13;12.48;;;23.10;99.90;;;;;;4993340;28;20479;-70
2023/05/12 11:26:06;;;;;;;15.80;13.65;;;22.60;99.90;;;;;;4993218;28;20118;-70
2023/05/12 11:28:41;;;;;;;14.85;13.27;;;22.60;99.90;;;;;;4992687;28;20044;-69
2023/05/12 11:31:07;;;;;;;16.98;13.18;;;22.50;99.90;;;;;;4992257;28;20038;-71
2023/05/12 11:33:32;;;;;;;18.92;13.93;;;22.80;99.90;;;;;;5009514;28;20082;-71
2023/05/12 11:36:03;;;;;;;19.33;15.27;;;22.70;99.90;;;;;;4993333;28;20085;-71
2023/05/12 11:38:28;;;;;;;20.30;14.05;;;22.60;99.90;;;;;;4992667;28;20126;-69
2023/05/12 11:40:54;;;;;;;18.90;15.43;;;23.20;99.90;;;;;;4992572;28;20125;-69
2023/05/12 11:43:21;;;;;;;19.58;13.70;;;22.60;99.90;;;;;;4992701;28;20034;-69
2023/05/12 11:45:46;;;;;;;16.23;12.10;;;22.70;99.90;;;;;;4992428;28;20050;-68
2023/05/12 11:48:13;;;;;;;14.55;11.60;;;22.80;99.90;;;;;;4992204;28;20049;-68
2023/05/12 11:50:42;;;;;;;12.75;10.70;;;23.00;99.90;;;;;;4975849;28;20038;-69
2023/05/12 11:53:13;;;;;;;11.60;8.77;;;23.20;99.90;;;;;;4993042;28;20496;-68
2023/05/12 11:55:47;;;;;;;8.48;7.60;;;23.10;99.90;;;;;;4992577;28;20081;-68
2023/05/12 11:58:19;;;;;;;17.83;12.65;;;23.20;99.90;;;;;;4993220;28;20042;-69
2023/05/12 12:00:45;;;;;;;12.98;10.50;;;23.30;99.90;;;;;;4992590;28;20074;-68
2023/05/12 12:03:13;;;;;;;13.15;9.57;;;23.50;99.90;;;;;;4991254;28;20046;-68
2023/05/12 12:05:40;;;;;;;12.43;9.43;;;23.30;99.90;;;;;;4992606;28;20127;-69
2023/05/12 12:08:14;;;;;;;13.35;10.60;;;23.40;99.90;;;;;;4976103;28;20042;-68
2023/05/12 12:10:46;;;;;;;11.35;9.25;;;23.10;99.90;;;;;;4976061;28;20041;-69
2023/05/12 12:13:18;;;;;;;13.75;10.38;;;22.60;99.90;;;;;;4992629;28;20039;-69
2023/05/12 12:15:44;;;;;;;13.88;10.50;;;22.70;99.90;;;;;;4992347;28;20038;-69
2023/05/12 12:18:09;;;;;;;12.63;9.77;;;23.40;99.90;;;;;;4992120;28;20042;-69
2023/05/12 12:20:35;;;;;;;10.32;7.32;;;23.20;99.90;;;;;;4975660;28;20050;-68
2023/05/12 12:23:01;;;;;;;9.35;7.70;;;23.50;99.90;;;;;;4975897;28;20039;-69
2023/05/12 12:25:26;;;;;;;7.63;6.30;;;23.80;99.90;;;;;;4992180;28;20042;-69
2023/05/12 12:27:52;;;;;;;8.10;6.35;;;23.70;99.90;;;;;;4992133;28;20038;-69
2023/05/12 12:30:17;;;;;;;7.40;6.25;;;23.60;99.90;;;;;;4991731;28;20101;-68
2023/05/12 12:32:44;;;;;;;7.22;4.88;;;24.00;99.90;;;;;;4975935;28;20038;-69
2023/05/12 12:35:11;;;;;;;7.75;6.05;;;23.90;99.90;;;;;;4992100;28;20100;-69
2023/05/12 12:37:37;;;;;;;7.57;6.63;;;23.80;99.90;;;;;;4992551;28;20415;-69
2023/05/12 12:40:07;;;;;;;6.53;5.80;;;24.00;99.90;;;;;;4991957;28;20053;-69
2023/05/12 12:42:34;;;;;;;8.63;6.10;;;24.00;99.90;;;;;;4990666;28;20404;-68
2023/05/12 12:45:01;;;;;;;9.65;8.52;;;24.30;99.90;;;;;;4993103;28;20038;-68
2023/05/12 12:47:27;;;;;;;10.60;8.52;;;24.10;99.90;;;;;;4991308;28;20125;-68
2023/05/12 12:49:52;;;;;;;10.52;6.78;;;25.40;99.90;;;;;;4991776;28;20069;-68
2023/05/12 12:52:18;;;;;;;7.95;6.80;;;24.10;99.90;;;;;;4990909;28;20389;-68
2023/05/12 12:54:44;;;;;;;7.60;6.30;;;24.10;99.90;;;;;;4991297;28;20038;-68
2023/05/12 12:57:09;;;;;;;8.35;5.70;;;24.40;99.90;;;;;;4991100;28;20424;-68
2023/05/12 12:59:35;;;;;;;6.75;5.82;;;24.50;99.90;;;;;;4991077;28;20511;-67
2023/05/12 13:02:01;;;;;;;6.72;5.30;;;24.60;99.90;;;;;;4988443;28;20404;-68
2023/05/12 13:04:26;;;;;;;6.85;5.30;;;24.80;99.90;;;;;;4991478;28;20065;-68
2023/05/12 13:06:52;;;;;;;6.75;4.95;;;24.90;99.90;;;;;;4992055;28;20030;-68